Time;durP1;ratioP1;P1;durP2;ratioP2;P2;SDS_P1;SDS_P2;PMS_P1;PMS_P2;Temp;Humidity;BMP_temperature;BMP_pressure;BME280_temperature;BME280_humidity;BME280_pressure;Samples;Min_cycle;Max_cycle;Signal;HPM_P1;HPM_P2
2022/03/10 00:02:23;;;;;;;6.25;2.22;;;;;;;14.91;56.79;100369.00;5054121;28;20037;-84
2022/03/10 00:04:48;;;;;;;4.90;2.45;;;;;;;14.70;57.24;100360.28;5054607;28;20029;-84
2022/03/10 00:07:13;;;;;;;8.18;2.63;;;;;;;14.73;57.19;100366.13;5054468;28;20025;-84
2022/03/10 00:09:38;;;;;;;5.97;2.30;;;;;;;14.87;56.75;100367.59;5054773;28;20113;-84
2022/03/10 00:12:04;;;;;;;5.90;2.53;;;;;;;14.84;56.79;100375.78;5054474;28;20021;-84
2022/03/10 00:14:30;;;;;;;11.43;2.97;;;;;;;14.65;57.03;100371.22;5054543;28;20048;-84
2022/03/10 00:16:56;;;;;;;8.45;1.92;;;;;;;14.92;56.39;100369.81;5054108;28;20035;-84
2022/03/10 00:19:21;;;;;;;10.43;2.88;;;;;;;14.94;56.28;100374.00;5054130;28;20056;-85
2022/03/10 00:21:48;;;;;;;10.70;2.45;;;;;;;14.78;56.76;100374.47;5054542;28;20468;-85
2022/03/10 00:24:14;;;;;;;7.88;2.63;;;;;;;14.76;56.50;100383.53;5054502;28;20021;-85
2022/03/10 00:26:41;;;;;;;8.05;2.10;;;;;;;14.60;56.86;100387.47;5054258;28;20029;-84
2022/03/10 00:29:06;;;;;;;7.85;2.40;;;;;;;14.93;56.36;100385.56;5054292;28;20036;-85
2022/03/10 00:31:32;;;;;;;9.00;2.20;;;;;;;15.04;55.79;100374.84;5053918;28;20029;-85
2022/03/10 00:33:58;;;;;;;8.75;2.35;;;;;;;14.61;56.49;100383.00;5054544;28;20356;-85
2022/03/10 00:36:23;;;;;;;9.02;2.40;;;;;;;14.62;56.72;100380.25;5053992;28;20049;-85
2022/03/10 00:38:49;;;;;;;6.75;3.47;;;;;;;14.91;56.13;100374.28;5055145;28;20021;-84
2022/03/10 00:41:14;;;;;;;6.20;1.75;;;;;;;15.04;55.83;100385.44;5057420;28;20031;-84
2022/03/10 00:43:40;;;;;;;11.55;2.42;;;;;;;14.65;56.46;100380.00;5056488;28;20029;-85
2022/03/10 00:46:05;;;;;;;10.23;2.28;;;;;;;14.58;56.42;100388.59;5053535;28;20032;-85
2022/03/10 00:48:31;;;;;;;14.25;2.20;;;;;;;14.82;55.92;100381.19;5053582;28;20029;-85
2022/03/10 00:50:56;;;;;;;6.88;2.25;;;;;;;14.96;55.86;100387.09;5053166;28;20067;-85
2022/03/10 00:53:21;;;;;;;8.02;2.05;;;;;;;14.81;56.05;100383.94;5053341;28;20283;-85
2022/03/10 00:55:46;;;;;;;7.35;2.15;;;;;;;14.75;56.20;100381.84;5053205;28;20039;-86
2022/03/10 00:58:12;;;;;;;8.38;2.28;;;;;;;14.73;55.95;100389.91;5053412;28;20390;-85
2022/03/10 01:00:37;;;;;;;10.30;1.88;;;;;;;14.76;56.00;100396.75;5053140;28;20399;-85
2022/03/10 01:03:03;;;;;;;8.48;2.55;;;;;;;14.81;55.66;100389.22;5053331;28;20025;-85
2022/03/10 01:05:29;;;;;;;9.90;2.60;;;;;;;15.01;55.84;100398.13;5053464;28;20029;-85
2022/03/10 01:07:54;;;;;;;6.57;1.92;;;;;;;14.87;56.04;100394.84;5052758;28;20368;-85
2022/03/10 01:10:20;;;;;;;8.55;1.67;;;;;;;14.96;55.83;100395.84;5052851;28;20025;-85
2022/03/10 01:12:46;;;;;;;5.65;2.40;;;;;;;14.78;56.40;100415.94;5052765;28;20135;-85
2022/03/10 01:15:14;;;;;;;8.25;2.22;;;;;;;14.43;57.66;100399.44;5053001;28;20029;-85
2022/03/10 01:17:39;;;;;;;7.88;1.52;;;;;;;14.57;57.61;100402.75;5052951;28;20044;-85
2022/03/10 01:20:05;;;;;;;9.98;2.60;;;;;;;14.87;56.60;100402.78;5052615;28;20402;-85
2022/03/10 01:22:31;;;;;;;7.55;2.00;;;;;;;14.94;56.65;100389.84;5051441;28;20029;-85
2022/03/10 01:24:56;;;;;;;7.00;2.75;;;;;;;14.90;56.76;100391.09;5052469;28;20025;-85
2022/03/10 01:27:22;;;;;;;9.68;2.20;;;;;;;14.82;57.28;100383.81;5052098;28;20033;-85
2022/03/10 01:29:47;;;;;;;6.60;2.00;;;;;;;14.85;56.83;100374.81;5052762;28;20025;-85
2022/03/10 01:32:12;;;;;;;9.25;2.05;;;;;;;14.82;56.71;100370.59;5052553;28;20029;-85
2022/03/10 01:34:38;;;;;;;7.38;2.22;;;;;;;14.83;56.58;100366.16;5052580;28;20109;-85
2022/03/10 01:37:04;;;;;;;9.38;1.88;;;;;;;14.97;56.40;100373.75;5052569;28;20032;-85
2022/03/10 01:39:32;;;;;;;6.13;1.85;;;;;;;14.98;56.43;100372.75;5052380;28;20026;-85
2022/03/10 01:41:58;;;;;;;6.82;2.42;;;;;;;14.77;56.74;100367.53;5051567;28;20376;-85
2022/03/10 01:44:24;;;;;;;9.57;2.15;;;;;;;14.79;56.65;100362.97;5052105;28;20032;-85
2022/03/10 01:46:49;;;;;;;9.35;2.50;;;;;;;14.83;56.33;100363.50;5052424;28;20493;-85
2022/03/10 01:49:15;;;;;;;7.63;2.05;;;;;;;14.84;56.40;100368.66;5052643;28;20028;-85
2022/03/10 01:51:41;;;;;;;6.82;2.28;;;;;;;14.85;56.39;100366.88;5052488;28;20087;-85
2022/03/10 01:54:07;;;;;;;5.55;1.52;;;;;;;14.82;56.34;100356.56;5052472;28;20048;-85
2022/03/10 01:56:33;;;;;;;8.88;2.15;;;;;;;15.00;56.06;100359.41;5051727;28;20033;-85
2022/03/10 01:59:01;;;;;;;8.40;2.40;;;;;;;14.87;55.96;100352.56;5051638;28;20033;-85
2022/03/10 02:01:26;;;;;;;7.53;1.85;;;;;;;14.58;57.21;100349.78;5051872;28;20438;-85
2022/03/10 02:03:51;;;;;;;16.55;2.20;;;;;;;14.83;56.15;100347.66;5052029;28;20021;-85
2022/03/10 02:06:17;;;;;;;7.07;2.20;;;;;;;14.80;56.43;100355.84;5051954;28;20463;-85
2022/03/10 02:11:27;;;;;;;7.55;2.20;;;;;;;14.98;56.06;100348.97;5051767;28;20084;-85
2022/03/10 02:13:52;;;;;;;8.05;2.00;;;;;;;14.80;56.62;100345.28;5051916;28;20374;-85
2022/03/10 02:19:03;;;;;;;9.57;2.17;;;;;;;14.75;56.54;100331.63;5051814;28;20545;-85
2022/03/10 02:21:29;;;;;;;5.63;2.30;;;;;;;14.91;56.23;100339.91;5051807;28;20029;-85
2022/03/10 02:23:54;;;;;;;10.43;3.17;;;;;;;14.77;56.51;100335.81;5057196;28;20029;-85
2022/03/10 02:26:20;;;;;;;8.38;2.00;;;;;;;14.85;56.23;100332.50;5058088;28;20024;-85
2022/03/10 02:28:48;;;;;;;7.43;2.28;;;;;;;14.76;56.61;100328.03;5058240;28;20025;-85
2022/03/10 02:31:13;;;;;;;5.53;1.50;;;;;;;14.82;56.06;100327.47;5057967;28;20063;-86
2022/03/10 02:33:38;;;;;;;9.75;2.17;;;;;;;14.81;56.03;100331.09;5058484;28;20118;-85
2022/03/10 02:36:05;;;;;;;9.60;2.17;;;;;;;14.76;56.26;100339.41;5058705;28;20049;-85
2022/03/10 02:38:31;;;;;;;3.97;1.80;;;;;;;14.71;56.48;100331.06;5058591;28;20060;-85
2022/03/10 02:40:57;;;;;;;6.55;2.20;;;;;;;14.73;56.30;100338.84;5057951;28;20086;-86
2022/03/10 02:43:23;;;;;;;13.73;2.08;;;;;;;14.79;56.22;100325.09;5058446;28;20469;-86
2022/03/10 02:45:48;;;;;;;10.73;2.08;;;;;;;14.95;55.86;100321.94;5058456;28;20033;-86
2022/03/10 02:48:14;;;;;;;8.55;2.40;;;;;;;14.90;56.05;100324.19;5058292;28;20028;-85
2022/03/10 02:50:40;;;;;;;12.00;3.30;;;;;;;14.60;57.01;100325.88;5058354;28;20067;-84
2022/03/10 02:53:05;;;;;;;5.80;2.03;;;;;;;14.96;55.90;100328.91;5056955;28;20024;-84
2022/03/10 02:55:31;;;;;;;9.38;2.20;;;;;;;14.86;56.08;100328.88;5058090;28;20025;-84
2022/03/10 02:57:57;;;;;;;7.72;2.97;;;;;;;14.84;56.42;100331.66;5058294;28;20089;-83
2022/03/10 03:00:23;;;;;;;7.90;2.58;;;;;;;14.82;56.58;100328.31;5058332;28;20041;-85
2022/03/10 03:02:49;;;;;;;9.50;2.72;;;;;;;14.64;56.85;100330.75;5073588;28;20032;-86
2022/03/10 03:05:16;;;;;;;8.35;2.53;;;;;;;14.62;57.15;100326.56;5058253;28;20099;-85
2022/03/10 03:07:44;;;;;;;8.88;2.65;;;;;;;14.56;57.36;100327.94;5058354;28;20073;-85
2022/03/10 03:10:11;;;;;;;6.22;2.20;;;;;;;14.61;57.06;100319.59;5057918;28;20028;-85
2022/03/10 03:12:51;;;;;;;5.95;2.55;;;;;;;14.79;56.61;100323.31;5058265;28;20053;-85
2022/03/10 03:15:17;;;;;;;12.00;3.13;;;;;;;14.72;56.75;100319.50;5057970;28;20021;-86
2022/03/10 03:17:43;;;;;;;8.57;2.05;;;;;;;14.71;56.98;100324.94;5058137;28;20064;-85
2022/03/10 03:20:14;;;;;;;10.02;2.97;;;;;;;14.56;57.54;100327.06;5058149;28;20028;-86
2022/03/10 03:22:43;;;;;;;6.90;2.22;;;;;;;14.54;57.44;100327.19;5058156;28;20035;-84
2022/03/10 03:25:14;;;;;;;8.07;2.95;;;;;;;14.45;58.06;100330.63;5058302;28;20024;-84
2022/03/10 03:27:41;;;;;;;6.45;2.45;;;;;;;14.45;57.85;100333.25;5056881;28;20064;-84
2022/03/10 03:30:07;;;;;;;6.85;2.38;;;;;;;14.66;57.25;100334.09;5057825;28;20033;-84
2022/03/10 03:32:33;;;;;;;7.55;2.95;;;;;;;14.57;57.60;100331.41;5058063;28;20060;-84
2022/03/10 03:34:59;;;;;;;12.50;3.35;;;;;;;14.43;58.04;100324.63;5054763;28;20063;-84
2022/03/10 03:37:24;;;;;;;9.23;2.33;;;;;;;14.44;58.25;100332.44;5054550;28;20078;-85
2022/03/10 03:39:49;;;;;;;9.48;3.30;;;;;;;14.48;58.22;100330.38;5054671;28;20025;-85
2022/03/10 03:42:15;;;;;;;10.57;3.00;;;;;;;14.51;58.08;100324.81;5052586;28;20079;-84
2022/03/10 03:44:40;;;;;;;9.30;2.88;;;;;;;14.27;58.76;100323.28;5054617;28;20050;-84
2022/03/10 03:47:05;;;;;;;11.30;2.78;;;;;;;14.43;58.37;100322.00;5054642;28;20225;-85
2022/03/10 03:49:31;;;;;;;9.43;2.63;;;;;;;14.52;58.53;100320.38;5054443;28;20062;-85
2022/03/10 03:51:56;;;;;;;10.55;2.92;;;;;;;14.24;58.66;100320.09;5054051;28;20029;-85
2022/03/10 03:54:21;;;;;;;10.20;3.30;;;;;;;14.29;59.21;100320.53;5054499;28;20025;-85
2022/03/10 03:56:46;;;;;;;10.15;4.00;;;;;;;14.26;59.10;100311.06;5054383;28;20119;-85
2022/03/10 03:59:12;;;;;;;7.35;2.75;;;;;;;14.09;59.47;100324.84;5054589;28;20156;-85
2022/03/10 04:01:37;;;;;;;8.52;3.05;;;;;;;14.18;59.20;100324.09;5054334;28;20052;-84
2022/03/10 04:04:03;;;;;;;10.52;3.03;;;;;;;13.98;60.10;100317.00;5054291;28;20033;-84
2022/03/10 04:06:28;;;;;;;6.50;2.75;;;;;;;14.09;59.61;100319.56;5054142;28;20756;-84
2022/03/10 04:08:53;;;;;;;7.45;2.75;;;;;;;14.09;59.80;100317.75;5054341;28;20020;-84
2022/03/10 04:11:19;;;;;;;10.07;3.80;;;;;;;14.08;59.81;100324.03;5054405;28;20698;-85
2022/03/10 04:13:45;;;;;;;5.85;2.65;;;;;;;14.00;60.10;100320.34;5053058;28;20059;-85
2022/03/10 04:16:10;;;;;;;11.23;3.33;;;;;;;14.22;59.75;100322.03;5054289;28;20499;-85
2022/03/10 04:18:36;;;;;;;6.10;2.63;;;;;;;14.23;59.25;100315.75;5054007;28;20036;-85
2022/03/10 04:21:02;;;;;;;12.88;3.67;;;;;;;14.22;59.66;100314.94;5053482;28;20043;-85
2022/03/10 04:23:27;;;;;;;9.90;3.33;;;;;;;14.30;59.35;100316.94;5053407;28;20106;-85
2022/03/10 04:25:54;;;;;;;6.60;2.58;;;;;;;14.42;58.94;100326.44;5053662;28;20052;-85
2022/03/10 04:28:19;;;;;;;10.05;3.30;;;;;;;14.24;59.53;100322.75;5054001;28;20108;-85
2022/03/10 04:30:44;;;;;;;6.63;2.55;;;;;;;14.29;59.53;100317.88;5054302;28;20485;-85
2022/03/10 04:33:10;;;;;;;10.48;3.40;;;;;;;14.36;59.27;100313.75;5053900;28;20433;-85
2022/03/10 04:35:36;;;;;;;11.65;3.40;;;;;;;14.34;59.62;100320.16;5054097;28;20027;-85
2022/03/10 04:38:01;;;;;;;8.40;3.20;;;;;;;14.23;59.94;100332.44;5053878;28;20037;-85
2022/03/10 04:40:26;;;;;;;7.32;2.50;;;;;;;14.35;59.44;100314.72;5053847;28;20467;-85
2022/03/10 04:42:52;;;;;;;6.30;2.70;;;;;;;13.83;61.19;100325.22;5053643;28;20383;-85
2022/03/10 04:45:18;;;;;;;7.22;2.53;;;;;;;14.39;59.31;100323.22;5053346;28;20021;-85
2022/03/10 04:47:44;;;;;;;10.45;2.47;;;;;;;13.92;60.76;100321.00;5054023;28;20029;-85
2022/03/10 04:50:11;;;;;;;7.47;2.92;;;;;;;14.16;60.45;100325.16;5053698;28;20032;-85
2022/03/10 04:52:37;;;;;;;9.60;2.50;;;;;;;13.91;61.09;100321.13;5054130;28;20025;-85
2022/03/10 04:55:03;;;;;;;9.63;3.10;;;;;;;13.88;61.29;100320.41;5053319;28;20082;-85
2022/03/10 04:57:28;;;;;;;10.27;2.88;;;;;;;14.07;60.61;100321.50;5053182;28;20048;-85
2022/03/10 04:59:54;;;;;;;6.40;2.55;;;;;;;14.21;60.61;100326.44;5053265;28;20372;-85
2022/03/10 05:02:20;;;;;;;6.47;2.40;;;;;;;14.27;60.08;100325.94;5053429;28;20025;-85
2022/03/10 05:04:45;;;;;;;10.00;2.70;;;;;;;14.18;60.14;100320.59;5053658;28;20538;-85
2022/03/10 05:07:11;;;;;;;12.32;3.08;;;;;;;14.01;60.75;100328.13;5053711;28;20107;-85
2022/03/10 05:09:37;;;;;;;10.80;2.63;;;;;;;14.06;60.68;100327.78;5053961;28;20085;-85
2022/03/10 05:12:03;;;;;;;9.20;3.00;;;;;;;13.99;61.02;100329.22;5053595;28;20483;-84
2022/03/10 05:14:28;;;;;;;10.68;2.78;;;;;;;14.11;60.64;100332.66;5054105;28;20020;-84
2022/03/10 05:16:54;;;;;;;11.68;2.65;;;;;;;13.98;61.24;100322.25;5058706;28;20024;-84
2022/03/10 05:19:19;;;;;;;10.98;2.70;;;;;;;14.15;60.69;100321.69;5074805;28;20028;-85
2022/03/10 05:21:45;;;;;;;12.23;2.88;;;;;;;14.08;60.84;100328.47;5073890;28;20445;-86
2022/03/10 05:24:11;;;;;;;7.20;3.00;;;;;;;14.12;60.81;100318.47;5059337;28;20025;-84
2022/03/10 05:26:38;;;;;;;9.40;2.53;;;;;;;13.89;61.53;100319.44;5056603;28;20449;-82
2022/03/10 05:29:04;;;;;;;10.35;3.10;;;;;;;14.12;61.32;100318.47;5062313;28;20108;-84
2022/03/10 05:31:29;;;;;;;6.38;2.90;;;;;;;13.88;61.73;100322.19;5058238;28;20053;-84
2022/03/10 05:33:55;;;;;;;7.80;2.72;;;;;;;14.19;61.01;100322.28;5072151;28;20383;-83
2022/03/10 05:36:20;;;;;;;8.23;3.38;;;;;;;14.38;60.41;100318.91;5074893;28;20033;-84
2022/03/10 05:38:45;;;;;;;6.63;2.60;;;;;;;13.82;62.47;100322.72;5068650;28;20060;-85
2022/03/10 05:41:11;;;;;;;10.27;3.10;;;;;;;13.94;62.00;100315.56;5062188;28;20051;-85
2022/03/10 05:43:36;;;;;;;14.77;3.25;;;;;;;14.08;61.45;100310.00;5061021;28;20029;-84
2022/03/10 05:46:02;;;;;;;8.18;2.92;;;;;;;14.19;61.73;100317.00;5059672;28;20093;-85
2022/03/10 05:48:27;;;;;;;14.40;2.40;;;;;;;14.10;61.90;100326.53;5062961;28;20053;-85
2022/03/10 05:50:53;;;;;;;10.23;2.83;;;;;;;13.61;63.47;100330.59;5067712;28;20030;-84
2022/03/10 05:53:18;;;;;;;13.52;3.42;;;;;;;14.01;62.27;100319.38;5055117;28;20027;-85
2022/03/10 05:55:43;;;;;;;11.32;2.65;;;;;;;13.89;62.35;100330.00;5052528;28;20040;-85
2022/03/10 05:58:09;;;;;;;13.15;2.38;;;;;;;13.82;63.02;100318.28;5052519;28;20107;-85
2022/03/10 06:00:34;;;;;;;11.73;2.85;;;;;;;13.83;62.57;100325.22;5052507;28;20055;-85
2022/03/10 06:03:00;;;;;;;10.52;2.80;;;;;;;14.12;62.22;100319.31;5052721;28;20029;-85
2022/03/10 06:05:25;;;;;;;11.38;2.72;;;;;;;13.94;62.65;100320.84;5052902;28;20025;-85
2022/03/10 06:07:50;;;;;;;9.40;2.85;;;;;;;13.97;62.70;100318.78;5052867;28;20025;-85
2022/03/10 06:10:16;;;;;;;9.95;2.63;;;;;;;13.96;62.68;100318.91;5052503;28;20037;-85
2022/03/10 06:12:43;;;;;;;14.13;2.72;;;;;;;13.50;64.04;100323.56;5052808;28;20447;-85
2022/03/10 06:15:09;;;;;;;9.13;2.75;;;;;;;13.89;62.97;100321.25;5055722;28;20031;-85
2022/03/10 06:17:35;;;;;;;8.32;2.38;;;;;;;14.13;62.57;100315.72;5052055;28;20025;-86
2022/03/10 06:20:01;;;;;;;11.88;3.63;;;;;;;14.06;62.51;100327.78;5052063;28;20071;-84
2022/03/10 06:22:29;;;;;;;7.82;2.28;;;;;;;14.17;62.10;100325.03;5052604;28;20104;-84
2022/03/10 06:24:55;;;;;;;13.93;4.53;;;;;;;14.15;62.59;100329.63;5051930;28;20017;-85
2022/03/10 06:27:23;;;;;;;8.95;2.25;;;;;;;13.84;63.48;100326.06;5052282;28;20540;-85
2022/03/10 06:29:50;;;;;;;5.88;1.92;;;;;;;13.62;63.92;100341.00;5051696;28;20056;-85
2022/03/10 06:32:17;;;;;;;6.32;1.88;;;;;;;13.47;64.53;100339.66;5051925;28;20538;-84
2022/03/10 06:34:42;;;;;;;9.57;2.38;;;;;;;13.48;64.43;100342.13;5051476;28;20088;-84
2022/03/10 06:37:08;;;;;;;10.35;2.40;;;;;;;13.35;64.99;100336.22;5051810;28;20056;-83
2022/03/10 06:39:34;;;;;;;8.93;2.95;;;;;;;13.62;64.00;100343.66;5051880;28;20478;-83
2022/03/10 06:42:02;;;;;;;14.60;2.50;;;;;;;13.33;65.06;100350.44;5050420;28;20074;-82
2022/03/10 06:44:29;;;;;;;10.32;2.15;;;;;;;13.64;64.45;100362.84;5052581;28;20063;-84
2022/03/10 06:46:54;;;;;;;14.15;2.67;;;;;;;13.52;64.31;100368.28;5071347;28;20539;-82
2022/03/10 06:49:21;;;;;;;10.27;1.88;;;;;;;13.33;64.86;100369.78;5055260;28;20051;-82
2022/03/10 06:51:46;;;;;;;16.23;2.65;;;;;;;13.43;64.64;100370.69;5047231;28;20026;-82
2022/03/10 06:54:12;;;;;;;13.45;2.40;;;;;;;13.55;64.33;100387.34;5051425;28;20360;-82
2022/03/10 06:56:38;;;;;;;11.73;2.15;;;;;;;13.27;65.13;100391.31;5056884;28;20013;-82
2022/03/10 06:59:04;;;;;;;6.78;1.70;;;;;;;13.17;65.29;100391.22;5051261;28;20032;-82
2022/03/10 07:01:29;;;;;;;9.23;2.00;;;;;;;13.14;65.22;100396.72;5050779;28;20021;-83
2022/03/10 07:03:57;;;;;;;10.82;2.10;;;;;;;13.52;64.36;100387.56;5050902;28;20033;-83
2022/03/10 07:06:23;;;;;;;14.20;2.85;;;;;;;13.23;65.16;100395.13;5051527;28;20018;-85
2022/03/10 07:08:49;;;;;;;11.38;2.28;;;;;;;13.48;64.39;100384.34;5052325;28;20028;-85
2022/03/10 07:11:14;;;;;;;11.20;2.10;;;;;;;13.33;64.83;100385.59;5055454;28;20129;-85
2022/03/10 07:13:39;;;;;;;5.90;1.45;;;;;;;13.40;64.43;100384.13;5055395;28;20083;-85
2022/03/10 07:16:05;;;;;;;7.68;1.63;;;;;;;13.63;63.41;100384.09;5054772;28;20025;-85
2022/03/10 07:18:30;;;;;;;7.20;1.40;;;;;;;13.78;63.21;100390.72;5054823;28;20108;-85
2022/03/10 07:20:55;;;;;;;12.10;1.77;;;;;;;13.39;63.46;100379.81;5055363;28;20017;-86
2022/03/10 07:23:21;;;;;;;10.50;1.70;;;;;;;13.68;62.64;100379.25;5055519;28;20383;-85
2022/03/10 07:25:46;;;;;;;9.00;1.88;;;;;;;13.95;61.94;100389.34;5049997;28;20029;-85
2022/03/10 07:28:11;;;;;;;7.10;1.50;;;;;;;14.29;60.76;100395.31;5045776;28;20437;-85
2022/03/10 07:30:37;;;;;;;8.75;1.48;;;;;;;13.93;61.58;100396.56;5042900;28;20545;-85
2022/03/10 07:33:03;;;;;;;7.70;1.15;;;;;;;14.16;60.84;100405.25;5052148;28;20021;-85
2022/03/10 07:35:29;;;;;;;11.60;1.70;;;;;;;14.32;60.25;100401.31;5063273;28;20078;-85
2022/03/10 07:37:56;;;;;;;6.88;1.40;;;;;;;14.45;59.93;100404.59;5070353;28;20064;-86
2022/03/10 07:40:22;;;;;;;8.32;1.25;;;;;;;14.16;60.25;100410.53;5059150;28;20072;-86
2022/03/10 07:42:47;;;;;;;8.93;1.42;;;;;;;14.23;60.31;100406.38;5050301;28;20040;-86
2022/03/10 07:45:13;;;;;;;12.02;2.22;;;;;;;13.91;61.16;100395.03;5049198;28;20028;-85
2022/03/10 07:47:39;;;;;;;5.32;1.25;;;;;;;14.58;59.82;100399.16;5049161;28;20040;-85
2022/03/10 07:50:06;;;;;;;8.48;1.30;;;;;;;14.47;59.98;100402.66;5049185;28;20028;-85
2022/03/10 07:52:32;;;;;;;14.15;2.13;;;;;;;14.14;61.11;100406.31;5049305;28;20033;-85
2022/03/10 07:54:57;;;;;;;10.40;1.90;;;;;;;14.24;61.31;100412.53;5049035;28;20111;-85
2022/03/10 07:57:23;;;;;;;11.10;2.10;;;;;;;14.15;61.45;100414.09;5048877;28;20426;-83
2022/03/10 07:59:48;;;;;;;15.40;1.88;;;;;;;14.28;61.13;100414.78;5048115;28;20402;-84
2022/03/10 08:02:13;;;;;;;8.55;1.38;;;;;;;14.22;61.03;100410.00;5045269;28;20021;-83
2022/03/10 08:04:39;;;;;;;15.25;2.15;;;;;;;14.22;61.01;100425.03;5048301;28;20557;-83
2022/03/10 08:07:05;;;;;;;7.07;1.83;;;;;;;14.36;60.80;100426.50;5049348;28;20061;-84
2022/03/10 08:09:30;;;;;;;14.45;1.77;;;;;;;14.12;61.29;100430.22;5048173;28;20132;-84
2022/03/10 08:11:56;;;;;;;9.50;1.60;;;;;;;14.15;61.53;100424.66;5048516;28;20045;-84
2022/03/10 08:14:21;;;;;;;11.48;2.03;;;;;;;14.07;61.67;100427.09;5051790;28;20285;-84
2022/03/10 08:16:46;;;;;;;13.10;1.98;;;;;;;14.06;61.78;100433.38;5053393;28;20063;-84
2022/03/10 08:19:12;;;;;;;10.57;2.08;;;;;;;14.32;61.14;100431.22;5052651;28;20033;-84
2022/03/10 08:21:38;;;;;;;12.60;2.50;;;;;;;14.12;61.99;100435.50;5052971;28;20025;-84
2022/03/10 08:24:05;;;;;;;7.93;1.58;;;;;;;14.31;61.15;100441.91;5049446;28;20384;-85
2022/03/10 08:26:30;;;;;;;10.20;1.42;;;;;;;14.24;61.21;100442.41;5051704;28;20090;-84
2022/03/10 08:28:56;;;;;;;17.40;1.88;;;;;;;14.31;61.18;100444.53;5052963;28;20029;-85
2022/03/10 08:31:21;;;;;;;7.25;1.65;;;;;;;14.20;60.38;100440.97;5053132;28;20048;-85
2022/03/10 08:33:48;;;;;;;5.82;1.17;;;;;;;15.19;57.93;100435.34;5053254;28;20031;-85
2022/03/10 08:36:14;;;;;;;8.73;1.50;;;;;;;15.76;56.45;100433.84;5055127;28;20025;-84
2022/03/10 08:38:40;;;;;;;5.03;0.90;;;;;;;16.31;54.32;100451.00;5054618;28;20534;-84
2022/03/10 08:41:06;;;;;;;2.88;0.70;;;;;;;16.01;54.27;100443.06;5052765;28;20112;-85
2022/03/10 08:43:32;;;;;;;5.28;0.70;;;;;;;15.30;55.82;100451.09;5054603;28;20116;-85
2022/03/10 08:45:58;;;;;;;8.60;1.48;;;;;;;15.37;55.74;100464.66;5054529;28;20017;-85
2022/03/10 08:48:24;;;;;;;3.30;0.65;;;;;;;15.33;55.98;100458.78;5054226;28;20553;-84
2022/03/10 08:50:50;;;;;;;2.28;0.47;;;;;;;15.59;55.27;100468.88;5053756;28;20112;-85
2022/03/10 08:53:15;;;;;;;4.70;0.80;;;;;;;14.91;56.57;100464.16;5053901;28;20104;-84
2022/03/10 08:55:41;;;;;;;7.22;0.60;;;;;;;14.91;57.47;100447.44;5053501;28;20017;-85
2022/03/10 08:58:06;;;;;;;3.30;0.50;;;;;;;14.73;57.61;100450.72;5053500;28;20037;-85
2022/03/10 09:00:32;;;;;;;2.00;0.45;;;;;;;14.61;58.00;100460.50;5053455;28;20037;-85
2022/03/10 09:02:58;;;;;;;3.65;0.45;;;;;;;14.98;56.98;100454.72;5053313;28;20017;-84
2022/03/10 09:05:24;;;;;;;6.53;0.77;;;;;;;15.08;56.79;100465.34;5053528;28;20112;-84
2022/03/10 09:07:49;;;;;;;4.47;0.57;;;;;;;15.10;56.69;100463.41;5053372;28;20375;-85
2022/03/10 09:10:15;;;;;;;3.63;0.55;;;;;;;14.70;57.70;100465.97;5050880;28;20186;-84
2022/03/10 09:12:41;;;;;;;3.28;0.43;;;;;;;14.45;58.28;100458.28;5052704;28;20041;-85
2022/03/10 09:15:08;;;;;;;2.15;0.50;;;;;;;15.16;57.08;100449.66;5053111;28;20021;-85
2022/03/10 09:17:33;;;;;;;2.20;0.30;;;;;;;14.59;58.04;100474.78;5052613;28;20025;-84
2022/03/10 09:19:59;;;;;;;4.25;0.77;;;;;;;14.48;58.77;100458.00;5052824;28;20032;-84
2022/03/10 09:22:25;;;;;;;3.50;0.55;;;;;;;15.56;56.14;100458.56;5052796;28;20067;-85
2022/03/10 09:24:52;;;;;;;5.07;0.60;;;;;;;15.53;55.52;100457.03;5051156;28;20028;-85
2022/03/10 09:27:17;;;;;;;3.70;0.80;;;;;;;17.32;51.67;100460.16;5052889;28;20107;-85
2022/03/10 09:29:42;;;;;;;7.43;0.60;;;;;;;16.69;52.07;100454.63;5052614;28;20104;-84
2022/03/10 09:32:08;;;;;;;2.63;0.77;;;;;;;16.93;51.41;100465.59;5051531;28;20390;-85
2022/03/10 09:34:33;;;;;;;3.70;0.65;;;;;;;17.76;51.38;100467.47;5051082;28;20012;-85
2022/03/10 09:36:59;;;;;;;6.05;0.60;;;;;;;18.33;49.26;100469.88;5051413;28;20467;-85
2022/03/10 09:39:24;;;;;;;3.13;0.70;;;;;;;17.88;49.57;100470.78;5051617;28;20017;-85
2022/03/10 09:41:49;;;;;;;4.97;0.77;;;;;;;18.46;49.46;100464.97;5052293;28;20302;-85
2022/03/10 09:44:19;;;;;;;3.63;0.57;;;;;;;16.87;51.55;100462.69;5051413;28;20040;-85
2022/03/10 09:46:47;;;;;;;5.20;0.80;;;;;;;17.35;51.20;100457.19;5052220;28;20463;-86
2022/03/10 09:49:13;;;;;;;3.78;0.52;;;;;;;16.66;51.72;100464.50;5052280;28;20451;-85
2022/03/10 09:51:39;;;;;;;5.63;0.70;;;;;;;16.99;51.31;100465.00;5051879;28;20048;-85
2022/03/10 09:54:04;;;;;;;10.98;1.00;;;;;;;16.49;52.05;100459.94;5051424;28;20025;-85
2022/03/10 09:56:30;;;;;;;4.85;0.80;;;;;;;16.34;52.21;100461.34;5051960;28;20029;-86
2022/03/10 09:58:56;;;;;;;5.32;0.80;;;;;;;16.12;52.42;100459.81;5051179;28;20478;-85
2022/03/10 10:01:22;;;;;;;11.48;0.90;;;;;;;16.31;52.51;100469.56;5051049;28;20033;-86
2022/03/10 10:03:47;;;;;;;3.88;0.80;;;;;;;16.18;52.30;100469.84;5051316;28;20032;-85
2022/03/10 10:06:13;;;;;;;9.20;1.02;;;;;;;15.84;52.57;100465.78;5051510;28;20033;-85
2022/03/10 10:08:41;;;;;;;7.35;2.83;;;;;;;15.40;53.71;100467.00;5051606;28;20032;-85
2022/03/10 10:11:07;;;;;;;5.10;1.10;;;;;;;15.12;53.73;100471.22;5051238;28;20017;-85
2022/03/10 10:13:34;;;;;;;7.60;1.10;;;;;;;15.53;53.43;100470.25;5051165;28;20032;-84
2022/03/10 10:16:10;;;;;;;4.60;0.70;;;;;;;15.71;51.91;100473.09;5051203;28;20037;-85
2022/03/10 10:18:37;;;;;;;3.38;1.05;;;;;;;15.63;52.30;100470.28;5051863;28;20037;-85
2022/03/10 10:21:05;;;;;;;7.65;1.13;;;;;;;15.23;53.16;100484.34;5051032;28;20593;-84
2022/03/10 10:23:33;;;;;;;6.53;1.88;;;;;;;15.57;52.63;100481.41;5051664;28;20387;-84
2022/03/10 10:26:01;;;;;;;3.10;0.88;;;;;;;15.67;51.67;100472.50;5051888;28;20407;-84
2022/03/10 10:28:35;;;;;;;4.15;0.95;;;;;;;15.78;51.52;100482.19;5051808;28;20364;-85
2022/03/10 10:31:12;;;;;;;8.25;1.15;;;;;;;16.05;50.61;100475.41;5051855;28;20562;-84
2022/03/10 10:33:39;;;;;;;5.18;0.70;;;;;;;17.74;47.84;100478.22;5051698;28;20017;-85
2022/03/10 10:36:24;;;;;;;3.25;0.52;;;;;;;18.92;46.07;100464.84;5052359;28;20029;-85
2022/03/10 10:38:55;;;;;;;3.58;0.88;;;;;;;19.59;44.32;100479.16;5051814;28;20025;-85
2022/03/10 10:41:29;;;;;;;4.20;0.70;;;;;;;20.23;42.81;100464.50;5052042;28;20071;-85
2022/03/10 10:43:58;;;;;;;5.80;1.00;;;;;;;19.69;43.27;100468.34;5052418;28;20035;-85
2022/03/10 10:46:31;;;;;;;8.82;0.70;;;;;;;20.15;42.97;100468.81;5055865;28;20029;-85
2022/03/10 10:48:58;;;;;;;1.77;0.40;;;;;;;19.32;43.55;100469.53;5055759;28;20438;-85
2022/03/10 10:51:31;;;;;;;5.43;0.65;;;;;;;18.54;45.16;100465.06;5055756;28;20491;-85
2022/03/10 10:53:58;;;;;;;7.38;1.08;;;;;;;18.19;46.09;100469.41;5055465;28;20025;-84
2022/03/10 10:56:23;;;;;;;5.40;1.17;;;;;;;17.77;46.58;100477.94;5055770;28;20021;-84
2022/03/10 10:58:52;;;;;;;4.47;0.63;;;;;;;18.91;45.31;100473.81;5054730;28;20029;-85
2022/03/10 11:01:35;;;;;;;4.53;0.60;;;;;;;18.61;45.35;100473.25;5055357;28;20036;-85
2022/03/10 11:04:03;;;;;;;2.92;0.82;;;;;;;19.37;44.52;100472.56;5055257;28;20056;-85
2022/03/10 11:06:29;;;;;;;4.25;0.50;;;;;;;19.57;43.35;100459.00;5054953;28;20029;-85
2022/03/10 11:08:54;;;;;;;5.07;0.80;;;;;;;20.32;42.16;100463.47;5055224;28;20098;-84
2022/03/10 11:11:22;;;;;;;5.72;1.10;;;;;;;20.51;42.21;100460.47;5055003;28;20025;-85
2022/03/10 11:13:48;;;;;;;8.07;0.90;;;;;;;20.36;43.01;100456.84;5055004;28;20075;-85
2022/03/10 11:16:16;;;;;;;5.65;1.00;;;;;;;19.75;43.70;100458.91;5055065;28;20017;-84
2022/03/10 11:18:47;;;;;;;4.85;1.00;;;;;;;19.55;43.71;100453.84;5055210;28;20090;-85
2022/03/10 11:21:43;;;;;;;5.10;0.50;;;;;;;19.06;44.68;100456.28;5055122;28;20040;-85
2022/03/10 11:24:33;;;;;;;5.13;1.08;;;;;;;19.96;43.61;100456.63;5055051;28;20032;-84